Time;durP1;ratioP1;P1;durP2;ratioP2;P2;SDS_P1;SDS_P2;PMS_P1;PMS_P2;Temp;Humidity;BMP_temperature;BMP_pressure;BME280_temperature;BME280_humidity;BME280_pressure;Samples;Min_cycle;Max_cycle;Signal;HPM_P1;HPM_P2
2023/12/05 00:05:04;;;;;;;40.6;24.4;;;;;;;-4.71;83.31;;;;;
2023/12/05 00:16:04;;;;;;;40.6;24.4;;;;;;;-4.39;82.77;;;;;
2023/12/05 00:26:04;;;;;;;31.7;18.4;;;;;;;-4.37;82.07;;;;;
2023/12/05 00:36:04;;;;;;;31.7;18.4;;;;;;;-4.61;82.64;;;;;
2023/12/05 00:47:05;;;;;;;31.7;18.4;;;;;;;-4.59;82.65;;;;;
2023/12/05 00:57:04;;;;;;;35.9;20.7;;;;;;;-4.6;82.62;;;;;
2023/12/05 01:08:04;;;;;;;35.9;20.7;;;;;;;-4.62;82.59;;;;;
2023/12/05 01:18:04;;;;;;;35.9;20.7;;;;;;;-4.66;82.88;;;;;
2023/12/05 01:29:05;;;;;;;34.2;17.6;;;;;;;-4.41;82.53;;;;;
2023/12/05 01:39:04;;;;;;;34.2;17.6;;;;;;;-4.47;82.27;;;;;
2023/12/05 01:50:04;;;;;;;34.2;17.6;;;;;;;-4.7;82.86;;;;;
2023/12/05 02:01:04;;;;;;;32.4;19.1;;;;;;;-4.61;83.05;;;;;
2023/12/05 02:12:04;;;;;;;32.4;19.1;;;;;;;-4.77;83.16;;;;;
2023/12/05 02:22:04;;;;;;;32.4;19.1;;;;;;;-4.64;82.67;;;;;
2023/12/05 02:32:04;;;;;;;27.9;18.7;;;;;;;-4.55;82.79;;;;;
2023/12/05 02:43:04;;;;;;;27.9;18.7;;;;;;;-4.75;82.94;;;;;
2023/12/05 02:53:04;;;;;;;27.9;18.7;;;;;;;-5.03;84.09;;;;;
2023/12/05 03:04:04;;;;;;;34.1;18.1;;;;;;;-4.84;83.33;;;;;
2023/12/05 03:15:04;;;;;;;34.1;18.1;;;;;;;-5.03;83.64;;;;;
2023/12/05 03:26:04;;;;;;;30.4;16.4;;;;;;;-4.95;82.88;;;;;
2023/12/05 03:37:04;;;;;;;30.4;16.4;;;;;;;-5.48;83.6;;;;;
2023/12/05 03:47:04;;;;;;;30.4;16.4;;;;;;;-5.52;84.15;;;;;
2023/12/05 03:57:04;;;;;;;30.4;16.8;;;;;;;-5.59;83.28;;;;;
2023/12/05 04:08:04;;;;;;;30.4;16.8;;;;;;;-5.79;82.58;;;;;
2023/12/05 04:18:04;;;;;;;30.4;16.8;;;;;;;-5.84;82.7;;;;;
2023/12/05 04:28:04;;;;;;;23.5;13.2;;;;;;;-5.61;83.57;;;;;
2023/12/05 04:38:04;;;;;;;23.5;13.2;;;;;;;-5.51;84.01;;;;;
2023/12/05 04:49:04;;;;;;;23.5;13.2;;;;;;;-5.13;84.22;;;;;
2023/12/05 04:59:04;;;;;;;21.2;12.8;;;;;;;-5.05;83.65;;;;;
2023/12/05 05:09:04;;;;;;;21.2;12.8;;;;;;;-4.99;84.21;;;;;
2023/12/05 05:20:04;;;;;;;21.2;12.8;;;;;;;-4.82;83.96;;;;;
2023/12/05 05:30:04;;;;;;;27.6;15.2;;;;;;;-4.77;83.45;;;;;
2023/12/05 05:40:06;;;;;;;27.6;15.2;;;;;;;-4.51;83.35;;;;;
2023/12/05 05:50:04;;;;;;;27.6;15.2;;;;;;;-4.69;83.82;;;;;
2023/12/05 06:01:04;;;;;;;27.8;15.9;;;;;;;-4.61;84.04;;;;;
2023/12/05 06:11:04;;;;;;;27.8;15.9;;;;;;;-4.56;83.88;;;;;
2023/12/05 06:22:04;;;;;;;27.8;15.9;;;;;;;-4.44;83.4;;;;;
2023/12/05 06:33:04;;;;;;;22.7;13.8;;;;;;;-4.22;83.27;;;;;
2023/12/05 06:43:04;;;;;;;22.7;13.8;;;;;;;-3.96;83.04;;;;;
2023/12/05 06:54:04;;;;;;;25.5;15.3;;;;;;;-3.83;81.54;;;;;
2023/12/05 07:05:04;;;;;;;25.5;15.3;;;;;;;-3.63;81.66;;;;;
2023/12/05 07:16:04;;;;;;;25.5;15.3;;;;;;;-3.35;81.87;;;;;
2023/12/05 07:27:04;;;;;;;28.1;14.2;;;;;;;-3.02;80.38;;;;;
2023/12/05 07:37:04;;;;;;;28.1;14.2;;;;;;;-2.66;80.58;;;;;
2023/12/05 07:47:07;;;;;;;28.1;14.2;;;;;;;-2.45;78.82;;;;;
2023/12/05 07:58:04;;;;;;;26.9;16.3;;;;;;;-2.69;78.97;;;;;
2023/12/05 08:08:04;;;;;;;26.9;16.3;;;;;;;-2.12;77.76;;;;;
2023/12/05 08:18:04;;;;;;;26.9;16.3;;;;;;;-2.12;76.63;;;;;
2023/12/05 08:29:04;;;;;;;28.1;17.3;;;;;;;-2.04;75.02;;;;;
2023/12/05 08:40:04;;;;;;;28.1;17.3;;;;;;;-1.75;75.39;;;;;
2023/12/05 08:50:04;;;;;;;28.1;17.3;;;;;;;-2.14;76.37;;;;;
2023/12/05 09:01:04;;;;;;;29.4;16.8;;;;;;;-2.45;75.33;;;;;
2023/12/05 09:11:04;;;;;;;29.4;16.8;;;;;;;-2.37;76.08;;;;;
2023/12/05 09:22:04;;;;;;;29.4;16.8;;;;;;;-2.43;76.06;;;;;
2023/12/05 09:33:04;;;;;;;29.4;16.4;;;;;;;-2.32;75.94;;;;;
2023/12/05 09:44:04;;;;;;;29.4;16.4;;;;;;;-1.76;76.11;;;;;
2023/12/05 09:55:04;;;;;;;28.6;17.1;;;;;;;-0.94;73.87;;;;;
2023/12/05 10:06:04;;;;;;;28.6;17.1;;;;;;;-0.6;72.79;;;;;
2023/12/05 10:16:04;;;;;;;28.6;17.1;;;;;;;-0.02;71.01;;;;;
2023/12/05 10:27:04;;;;;;;38.9;21.6;;;;;;;-0.09;70.85;;;;;
2023/12/05 10:37:04;;;;;;;38.9;21.6;;;;;;;0.53;68.92;;;;;
2023/12/05 10:48:04;;;;;;;38.9;21.6;;;;;;;0.77;67.81;;;;;
2023/12/05 10:58:04;;;;;;;40.4;23.4;;;;;;;1.27;68.67;;;;;
2023/12/05 11:08:04;;;;;;;40.4;23.4;;;;;;;1.35;67.04;;;;;
2023/12/05 11:19:04;;;;;;;40.4;23.4;;;;;;;1.51;66.84;;;;;
2023/12/05 11:29:04;;;;;;;38.5;22.6;;;;;;;1.63;66.78;;;;;
2023/12/05 11:39:04;;;;;;;38.5;22.6;;;;;;;1.15;66.73;;;;;
2023/12/05 11:50:04;;;;;;;38.5;22.6;;;;;;;1.11;68.66;;;;;
2023/12/05 12:01:04;;;;;;;39.4;21.6;;;;;;;1.55;66.92;;;;;
2023/12/05 12:12:04;;;;;;;39.4;21.6;;;;;;;1.73;66.67;;;;;
2023/12/05 12:22:04;;;;;;;39.4;21.6;;;;;;;1.61;65.96;;;;;
2023/12/05 12:33:09;;;;;;;32.8;20.9;;;;;;;1.58;65.42;;;;;
2023/12/05 12:43:04;;;;;;;32.8;20.9;;;;;;;1.21;66.77;;;;;
2023/12/05 12:53:04;;;;;;;32.2;19.5;;;;;;;1.19;66.79;;;;;
2023/12/05 13:04:04;;;;;;;32.2;19.5;;;;;;;1.1;67.17;;;;;
2023/12/05 13:14:04;;;;;;;32.2;19.5;;;;;;;0.81;68.37;;;;;
2023/12/05 13:25:04;;;;;;;37.9;19.7;;;;;;;0.41;69.49;;;;;
2023/12/05 13:35:04;;;;;;;37.9;19.7;;;;;;;-0.29;71.37;;;;;
2023/12/05 13:46:04;;;;;;;37.9;19.7;;;;;;;-0.54;72.25;;;;;
2023/12/05 13:57:05;;;;;;;39.4;21.5;;;;;;;-0.99;73.62;;;;;
2023/12/05 14:07:04;;;;;;;39.4;21.5;;;;;;;-1.23;74.04;;;;;
2023/12/05 14:17:04;;;;;;;39.4;21.5;;;;;;;-1.55;74.58;;;;;
2023/12/05 14:28:04;;;;;;;43;24;;;;;;;-1.87;74.99;;;;;
2023/12/05 14:38:04;;;;;;;43;24;;;;;;;-2.3;76.28;;;;;
2023/12/05 14:48:04;;;;;;;43;24;;;;;;;-2.68;76.94;;;;;
2023/12/05 14:59:04;;;;;;;53.3;28.7;;;;;;;-3.14;78.03;;;;;
2023/12/05 15:09:04;;;;;;;53.3;28.7;;;;;;;-3.58;80.5;;;;;
2023/12/05 15:20:04;;;;;;;53.3;28.7;;;;;;;-3.84;80.13;;;;;
2023/12/05 15:31:04;;;;;;;37.1;21.7;;;;;;;-4.21;80.84;;;;;
2023/12/05 15:42:04;;;;;;;37.1;21.7;;;;;;;-4.44;81.03;;;;;
2023/12/05 15:52:04;;;;;;;40.3;25.2;;;;;;;-4.7;81.17;;;;;
2023/12/05 16:03:04;;;;;;;40.3;25.2;;;;;;;-5.11;83.51;;;;;
2023/12/05 16:13:04;;;;;;;40.3;25.2;;;;;;;-5.19;83.01;;;;;
2023/12/05 16:23:04;;;;;;;39.7;25.7;;;;;;;-5.34;82.55;;;;;
2023/12/05 16:34:04;;;;;;;39.7;25.7;;;;;;;-5.43;82.71;;;;;
2023/12/05 16:44:04;;;;;;;39.7;25.7;;;;;;;-5.25;81.6;;;;;
2023/12/05 16:55:04;;;;;;;43.1;24.6;;;;;;;-5.37;81.85;;;;;
2023/12/05 17:06:04;;;;;;;43.1;24.6;;;;;;;-5.67;82.46;;;;;
2023/12/05 17:17:04;;;;;;;43.1;24.6;;;;;;;-5.89;81.14;;;;;
2023/12/05 17:27:04;;;;;;;45.4;26.3;;;;;;;-6.05;81.5;;;;;
2023/12/05 17:38:04;;;;;;;45.4;26.3;;;;;;;-6.29;81.39;;;;;
2023/12/05 17:49:05;;;;;;;45.4;26.3;;;;;;;-6.57;83.95;;;;;
2023/12/05 18:00:05;;;;;;;39.4;25.9;;;;;;;-6.61;83.31;;;;;
2023/12/05 18:10:04;;;;;;;39.4;25.9;;;;;;;-6.47;83.85;;;;;
2023/12/05 18:20:04;;;;;;;39.4;25.9;;;;;;;-6.52;83.08;;;;;
2023/12/05 18:31:04;;;;;;;41.8;25;;;;;;;-6.68;82.87;;;;;
2023/12/05 18:41:04;;;;;;;41.8;25;;;;;;;-6.65;84.05;;;;;
2023/12/05 18:52:04;;;;;;;47.1;28.2;;;;;;;-6.79;85.06;;;;;
2023/12/05 19:02:04;;;;;;;47.1;28.2;;;;;;;-6.25;85.31;;;;;
2023/12/05 19:12:05;;;;;;;47.1;28.2;;;;;;;-6.18;84.03;;;;;
2023/12/05 19:22:04;;;;;;;49;29.8;;;;;;;-6.27;83.15;;;;;
2023/12/05 19:33:04;;;;;;;49;29.8;;;;;;;-6.38;82.92;;;;;
2023/12/05 19:44:04;;;;;;;49;29.8;;;;;;;-6.3;83.37;;;;;
2023/12/05 19:54:05;;;;;;;50.2;26.7;;;;;;;-5.9;84.34;;;;;
2023/12/05 20:05:04;;;;;;;50.2;26.7;;;;;;;-5.62;83.96;;;;;
2023/12/05 20:16:04;;;;;;;50.2;26.7;;;;;;;-5.19;84.12;;;;;
2023/12/05 20:27:04;;;;;;;71.2;38.3;;;;;;;-4.83;84;;;;;
2023/12/05 20:37:05;;;;;;;71.2;38.3;;;;;;;-4.31;83.85;;;;;
2023/12/05 20:48:04;;;;;;;71.2;38.3;;;;;;;-4.15;83.26;;;;;
2023/12/05 20:59:04;;;;;;;94.3;54.7;;;;;;;-3.91;83.16;;;;;
2023/12/05 21:09:04;;;;;;;94.3;54.7;;;;;;;-4.13;83.36;;;;;
2023/12/05 21:20:06;;;;;;;94.3;54.7;;;;;;;-3.82;83.15;;;;;
2023/12/05 21:31:04;;;;;;;68.6;39.5;;;;;;;-3.92;82.71;;;;;
2023/12/05 21:41:04;;;;;;;68.6;39.5;;;;;;;-3.79;82.74;;;;;
2023/12/05 21:51:04;;;;;;;61.7;36.9;;;;;;;-3.55;82.58;;;;;
2023/12/05 22:02:04;;;;;;;61.7;36.9;;;;;;;-3.54;81.72;;;;;
2023/12/05 22:12:04;;;;;;;61.7;36.9;;;;;;;-3.78;82.04;;;;;
2023/12/05 22:22:04;;;;;;;63.7;36.3;;;;;;;-3.69;81.74;;;;;
2023/12/05 22:33:04;;;;;;;63.7;36.3;;;;;;;-3.92;83.01;;;;;
2023/12/05 22:44:04;;;;;;;63.7;36.3;;;;;;;-3.95;83.43;;;;;
2023/12/05 22:55:04;;;;;;;62.1;35.4;;;;;;;-3.62;82.86;;;;;
2023/12/05 23:05:04;;;;;;;62.1;35.4;;;;;;;-3.49;82.14;;;;;
2023/12/05 23:16:04;;;;;;;62.1;35.4;;;;;;;-3.4;81.98;;;;;
2023/12/05 23:26:04;;;;;;;63.7;36.3;;;;;;;-3.35;81.4;;;;;
2023/12/05 23:37:04;;;;;;;63.7;36.3;;;;;;;-3.18;81.29;;;;;
2023/12/05 23:47:04;;;;;;;63.7;36.3;;;;;;;-3.11;81.9;;;;;
2023/12/05 23:57:07;;;;;;;56;33.7;;;;;;;-3.36;82.12;;;;;
